• Join FlightAware (Why Join?)
  • Login
  • US Flag 
03:59AM EDT


 

Airport Tracker/Info


-or-


 

Live Flight TrackerFlight Track Log ✈ AWI3778 ✈ 17-Jun-2013 ✈ KPHL - KBTV

Flight Track Log - Related Links

Times and Time Zones

All times are in EDT time to prevent confusion due to time zone crossing. See the AWI3778 flight status page for this flight to view local times or setup timezone preferences in your user account.

Time Position Orientation Groundspeed Altitude Reporting Facility
EDT Latitude Longitude Course Direction KTS MPH feet Rate Location/Type
11:51AM 39.8667 -75.2667 37° Northeast 167 192 700  Level Philadelphia TRACON
11:52AM 39.8167 -75.3167 218° Southwest 209 241 2,900 1,680 Climbing Philadelphia TRACON
11:54AM 39.7353 -75.2817 162° South 269 310 6,100 1,800 Climbing New York Center
11:55AM 39.7600 -75.1808 72° East 257 296 8,300 2,040 Climbing New York Center
11:56AM 39.8936 -74.5898 37° Northeast  Level FlightAware Approximate
11:56AM 39.7853 -75.0661 74° East 284 327 10,100  Level New York Center
11:57AM 39.7875 -74.9447 89° East 311 358 11,800 900 Climbing New York Center
11:58AM 39.7919 -74.8125 87° East 337 388 12,000 120 Climbing New York Center
11:59AM 39.8256 -74.6819 71° East 365 420 12,100 1,140 Climbing New York Center
12:00PM 39.9117 -74.6003 36° Northeast 352 405 14,300 1,860 Climbing New York Center
12:01PM 39.9978 -74.5183 36° Northeast 352 405 15,900 1,860 Climbing New York Center
12:02PM 40.0839 -74.4308 38° Northeast 384 442 18,100 1,740 Climbing New York Center
12:03PM 40.1678 -74.3508 36° Northeast 384 442 19,500 1,140 Climbing New York Center
12:04PM 40.2594 -74.2794 31° Northeast 379 436 20,500 960 Climbing New York Center
12:05PM 40.3631 -74.2331 19° North 379 436 21,500 960 Climbing New York Center
12:06PM 40.4744 -74.1978 14° North 393 452 22,500 960 Climbing New York Center
12:07PM 40.5858 -74.1622 14° North 399 459 23,500 960 Climbing New York Center
12:08PM 40.6972 -74.1242 15° North 404 465 24,500 720 Climbing New York Center
12:09PM 40.8150 -74.0889 13° North 409 471 25,000 120 Climbing New York Center
12:11PM 41.0703 -74.0067 14° North 426 490 25,000  Level Boston Center
12:12PM 41.1833 -73.9681 14° North 426 490 25,000  Level Boston Center
12:13PM 41.2944 -73.9292 15° North 416 479 25,000  Level Boston Center
12:14PM 41.4033 -73.8875 16° North 411 473 25,000  Level Boston Center
12:15PM 41.5064 -73.8122 29° Northeast 411 473 25,000  Level Boston Center
12:16PM 41.6094 -73.7367 29° Northeast 411 473 25,000  Level Boston Center
12:17PM 41.7142 -73.6889 19° North 405 466 25,000  Level Boston Center
12:18PM 41.8228 -73.6603 11° North 392 451 25,000  Level Boston Center
12:19PM 41.9336 -73.6317 11° North 392 451 25,000  Level Boston Center
12:20PM 42.0444 -73.6003 12° North 392 451 25,000  Level Boston Center
12:21PM 42.1556 -73.5322 24° Northeast 407 468 25,000  Level Boston Center
12:22PM 42.2622 -73.4947 15° North 407 468 25,000  Level Boston Center
12:24PM 42.3706 -73.4883 North 389 448 25,000  Level Boston Center
12:25PM 42.5042 -73.4681 North 389 448 25,000  Level Boston Center
12:26PM 42.6128 -73.4386 11° North 389 448 25,000  Level Boston Center
12:27PM 42.7236 -73.3811 21° North 394 453 25,000  Level Boston Center
12:28PM 42.8431 -73.3208 20° North 405 466 25,000  Level Boston Center
12:29PM 42.9308 -73.2767 20° North 411 473 25,000  Level Boston Center
12:30PM 43.0606 -73.2131 20° North 411 473 25,000  Level Boston Center
12:31PM 43.1881 -73.1492 20° North 411 473 25,000  Level Boston Center
12:32PM 43.2967 -73.0961 20° North 411 473 25,000 -120 Level Boston Center
12:33PM 43.4117 -73.0289 23° Northeast 406 467 24,800 -540 Descending Boston Center
12:34PM 43.5222 -73.0386 356° North 391 450 24,000 -420 Descending Boston Center
12:35PM 43.6325 -73.0539 354° North 391 450 24,000 -900 Level Boston Center
12:36PM 43.7408 -73.0694 354° North 391 450 22,100 -2,340 Descending Boston Center
12:37PM 43.8761 -73.0853 355° North 379 436 18,900 -3,060 Descending Boston Center
12:38PM 43.9739 -73.0978 355° North 362 417 16,000 -3,120 Descending Boston Center
12:39PM 44.0697 -73.1075 356° North 353 406 12,700 -2,940 Descending Boston Center
12:40PM 44.1531 -73.1200 354° North 315 362 10,200 -2,700 Descending Boston Center
12:41PM 44.2139 -73.0425 42° Northeast 263 303 7,300 -2,280 Descending Boston Center
12:42PM 44.2622 -72.9647 49° Northeast 263 303 5,700 -900 Descending Boston Center
12:43PM 44.3186 -72.9508 10° North 222 255 5,500 -240 Descending Boston Center